Lake Oke Center current weather conditions

sailwx.info

Wind from 186 at 6 knots gusting 7

Air temperature 18.0° C
Dewpoint 17.1° C
Water temperature -7999.0° C

Last reported at 2020-Jan-25 03:45 UTC.
Time now 2020-Jan-25 04:53 UTC

Location: N 26°54' W 080°47'.
View on Google Maps.

See reports from other nearby stations

  
Tides and Currents Weather Stations Pressure Air Temp Water Temp Dewpoint Dewpoint Depression Visibility Wind Speed Wind Dir Waves Ship Positions
date/time (UTC)wind fromknots sea level pressurealtimeterstation pressurevisibilityair tempwater tempwave heightnotes
2020-Jan-25 03:45 186 6 gusting 7 18.0-7999.0
2020-Jan-25 03:30 192 6 gusting 7 18.2-7999.0
2020-Jan-25 03:15 199 6 gusting 7 18.3-7999.0
2020-Jan-25 03:00 192 7 gusting 8 18.5-7999.0
2020-Jan-25 02:45 194 8 gusting 9 19.0-7999.0
2020-Jan-25 02:30 176 5 gusting 8 19.1-7999.0
2020-Jan-25 02:15 171 7 gusting 11 18.5-7999.0
2020-Jan-25 02:00 123 5 gusting 6 18.5-7999.0
2020-Jan-25 01:45 109 5 gusting 5 18.4-7999.0
2020-Jan-25 01:30 111 5 gusting 5 18.6-7999.0
2020-Jan-25 01:15 108 5 gusting 5 18.8-7999.0
2020-Jan-25 01:00 108 6 gusting 6 18.8-7999.0
2020-Jan-25 00:45 108 5 gusting 6 18.9-7999.0
2020-Jan-25 00:30 104 5 gusting 5 19.1-7999.0
2020-Jan-25 00:15 114 5 gusting 5 19.3-7999.0
2020-Jan-24 23:45 107 5 gusting 6 19.6-7999.0
2020-Jan-24 23:30 099 6 gusting 7 19.9-7999.0
2020-Jan-24 23:15 100 7 gusting 8 20.2-7999.0
2020-Jan-24 22:45 063 6 gusting 7 20.0-7999.0
2020-Jan-24 22:30 059 7 gusting 7 20.1-7999.0
2020-Jan-24 22:15 061 6 gusting 6 20.2-7999.0
2020-Jan-24 21:45 049 6 gusting 7 20.1-7999.0
2020-Jan-24 21:30 046 6 gusting 6 19.9-7999.0
2020-Jan-24 21:15 047 6 gusting 6 19.9-7999.0
2020-Jan-24 20:45 041 5 gusting 6 19.7-7999.0
2020-Jan-24 20:30 040 6 gusting 6 19.8-7999.0
2020-Jan-24 20:15 038 6 gusting 7 19.6-7999.0
2020-Jan-24 19:45 028 5 gusting 6 19.6-7999.0
2020-Jan-24 19:30 044 5 gusting 6 19.6-7999.0
2020-Jan-24 19:15 050 6 gusting 6 19.5-7999.0
2020-Jan-24 18:45 048 5 gusting 6 19.3-7999.0
2020-Jan-24 18:30 052 5 gusting 5 19.2-7999.0
2020-Jan-24 18:15 052 4 gusting 5 19.0-7999.0
2020-Jan-24 17:45 067 5 gusting 5 19.0-7999.0
2020-Jan-24 17:30 070 4 gusting 5 18.7-7999.0
2020-Jan-24 17:15 077 4 gusting 4 18.3-7999.0
2020-Jan-24 16:45 086 4 gusting 5 17.9-7999.0
2020-Jan-24 16:30 084 5 gusting 5 17.8-7999.0
2020-Jan-24 16:15 084 5 gusting 5 17.7-7999.0
2020-Jan-24 15:45 071 4 gusting 4 17.5-7999.0
2020-Jan-24 15:30 058 4 gusting 4 17.4-7999.0
2020-Jan-24 15:15 061 4 gusting 4 17.4-7999.0
2020-Jan-24 14:45 087 5 gusting 6 17.2-7999.0
2020-Jan-24 14:30 083 6 gusting 6 17.2-7999.0
2020-Jan-24 14:15 079 6 gusting 7 17.2-7999.0
2020-Jan-24 13:45 090 7 gusting 8 17.0-7999.0
2020-Jan-24 13:30 101 8 gusting 9 17.0-7999.0
2020-Jan-24 13:15 089 7 gusting 7 17.0-7999.0
2020-Jan-24 12:45 099 9 gusting 10 17.1-7999.0
2020-Jan-24 12:30 100 9 gusting 10 17.1-7999.0
2020-Jan-24 12:15 099 9 gusting 10 17.1-7999.0
2020-Jan-24 12:00 099 9 gusting 11 17.1-7999.0
2020-Jan-24 11:45 088 9 gusting 10 17.2-7999.0
2020-Jan-24 11:30 099 10 gusting 11 17.2-7999.0
2020-Jan-24 11:15 102 10 gusting 13 17.2-7999.0
2020-Jan-24 10:45 107 9 gusting 10 17.1-7999.0
2020-Jan-24 10:30 103 8 gusting 10 17.1-7999.0
2020-Jan-24 10:15 098 8 gusting 9 17.0-7999.0
2020-Jan-24 09:45 091 7 gusting 9 16.9-7999.0
2020-Jan-24 09:30 093 6 gusting 8 16.9-7999.0
2020-Jan-24 09:15 098 4 gusting 6 17.0-7999.0
2020-Jan-24 08:45 127 6 gusting 7 17.1-7999.0
2020-Jan-24 08:30 119 6 gusting 7 17.1-7999.0
2020-Jan-24 08:15 120 5 gusting 6 17.0-7999.0
2020-Jan-24 07:45 115 5 gusting 5 17.3-7999.0
2020-Jan-24 07:30 121 3 gusting 4 17.2-7999.0
2020-Jan-24 07:15 155 3 gusting 4 17.1-7999.0
2020-Jan-24 06:45 103 1 gusting 1 17.0-7999.0
2020-Jan-24 06:30 056 1 gusting 1 16.8-7999.0
2020-Jan-24 06:15 120 1 gusting 2 16.8-7999.0
2020-Jan-24 06:00 240 3 gusting 4 17.0-7999.0
2020-Jan-24 05:45 230 3 gusting 4 16.9-7999.0
2020-Jan-24 05:30 207 2 gusting 3 17.0-7999.0
2020-Jan-24 05:15 131 0 gusting 1 17.4-7999.0
2020-Jan-24 04:45 104 0 gusting 0 17.3-7999.0
2020-Jan-24 04:30 100 0 gusting 0 17.3-7999.0
2020-Jan-24 04:15 104 0 gusting 0 17.4-7999.0
2020-Jan-24 03:45 119 1 gusting 2 17.2-7999.0
2020-Jan-24 03:30 131 2 gusting 3 17.2-7999.0
2020-Jan-24 03:15 112 0 gusting 2 17.1-7999.0
2020-Jan-24 02:45 100 0 gusting 0 17.0-7999.0
2020-Jan-24 02:30 094 1 gusting 2 17.1-7999.0
2020-Jan-24 02:15 087 3 gusting 3 17.1-7999.0
2020-Jan-24 01:45 083 3 gusting 4 17.2-7999.0
2020-Jan-24 01:30 092 3 gusting 4 17.1-7999.0
2020-Jan-24 01:15 087 4 gusting 6 17.2-7999.0
2020-Jan-24 00:45 067 8 gusting 9 17.6-7999.0
2020-Jan-24 00:30 058 9 gusting 10 17.7-7999.0
2020-Jan-24 00:15 061 8 gusting 10 17.6-7999.0
2020-Jan-23 23:45 055 9 gusting 12 17.7-7999.0
2020-Jan-23 23:30 064 8 gusting 9 17.8-7999.0
2020-Jan-23 23:15 046 8 gusting 9 18.0-7999.0
2020-Jan-23 22:45 031 7 gusting 8 18.1-7999.0
2020-Jan-23 22:30 038 7 gusting 8 17.8-7999.0
2020-Jan-23 22:15 028 7 gusting 9 18.0-7999.0
2020-Jan-23 21:45 010 8 gusting 9 18.0-7999.0
2020-Jan-23 21:30 103 9 gusting 10 18.2-7999.0
2020-Jan-23 21:15 243 7 gusting 9 18.1-7999.0
2020-Jan-23 20:45 275 7 gusting 9 17.6-7999.0
2020-Jan-23 20:30 073 6 gusting 7 17.5-7999.0
2020-Jan-23 20:15 098 7 gusting 7 17.7-7999.0
2020-Jan-23 19:45 044 8 gusting 10 17.4-7999.0
2020-Jan-23 19:30 018 7 gusting 8 17.4-7999.0
2020-Jan-23 19:15 010 8 gusting 9 17.5-7999.0
2020-Jan-23 18:45 013 8 gusting 9 17.1-7999.0
2020-Jan-23 18:30 006 7 gusting 7 17.2-7999.0
2020-Jan-23 18:15 020 6 gusting 7 17.1-7999.0
2020-Jan-23 17:45 017 6 gusting 7 16.9-7999.0
2020-Jan-23 17:30 052 8 gusting 9 16.6-7999.0
2020-Jan-23 17:15 236 8 gusting 10 16.1-7999.0
2020-Jan-23 16:45 280 7 gusting 9 15.3-7999.0
2020-Jan-23 16:30 331 8 gusting 9 14.8-7999.0
2020-Jan-23 16:15 338 9 gusting 10 14.5-7999.0
2020-Jan-23 15:45 336 8 gusting 9 14.2-7999.0
2020-Jan-23 15:30 329 7 gusting 9 14.0-7999.0
2020-Jan-23 15:15 332 7 gusting 10 13.8-7999.0
2020-Jan-23 14:45 332 7 gusting 8 13.6-7999.0
2020-Jan-23 14:30 340 6 gusting 8 13.5-7999.0
2020-Jan-23 14:15 341 6 gusting 8 13.4-7999.0
2020-Jan-23 13:45 130 8 gusting 10 13.2-7999.0
2020-Jan-23 13:30 017 10 gusting 12 13.1-7999.0
2020-Jan-23 13:15 012 11 gusting 13 13.0-7999.0
2020-Jan-23 12:45 010 13 gusting 15 13.1-7999.0
2020-Jan-23 12:30 008 13 gusting 15 13.0-7999.0
2020-Jan-23 12:15 010 14 gusting 15 12.9-7999.0
2020-Jan-23 11:45 016 13 gusting 14 13.1-7999.0
2020-Jan-23 11:30 016 13 gusting 15 13.2-7999.0
2020-Jan-23 11:15 011 12 gusting 14 13.3-7999.0
2020-Jan-23 10:45 022 13 gusting 14 13.5-7999.0
2020-Jan-23 10:30 021 13 gusting 15 13.4-7999.0
2020-Jan-23 10:15 020 13 gusting 15 13.3-7999.0
2020-Jan-23 09:45 007 16 gusting 19 13.1-7999.0
2020-Jan-23 09:30 056 14 gusting 16 13.0-7999.0
2020-Jan-23 09:15 056 13 gusting 14 13.0-7999.0
2020-Jan-23 08:45 056 13 gusting 15 13.4-7999.0
2020-Jan-23 08:30 050 13 gusting 15 13.3-7999.0
2020-Jan-23 08:15 006 15 gusting 17 13.3-7999.0
2020-Jan-23 07:45 008 17 gusting 20 13.4-7999.0
2020-Jan-23 07:30 024 16 gusting 20 13.4-7999.0
2020-Jan-23 07:15 046 16 gusting 19 13.3-7999.0
2020-Jan-23 06:45 009 18 gusting 20 13.1-7999.0
2020-Jan-23 06:30 006 18 gusting 20 13.1-7999.0
2020-Jan-23 06:15 012 18 gusting 20 13.0-7999.0
2020-Jan-23 05:45 023 16 gusting 18 13.3-7999.0
2020-Jan-23 05:30 016 17 gusting 20 13.2-7999.0
2020-Jan-23 05:15 008 16 gusting 18 13.1-7999.0
2020-Jan-23 04:45 072 15 gusting 17 13.0-7999.0
2020-Jan-23 04:30 176 15 gusting 17 12.9-7999.0
2020-Jan-23 04:15 229 14 gusting 16 12.9-7999.0